Tyler, Alabama
Current Conditions -  °F | °C
As of 8:15 AM on Thursday 27 Nov 2014 (Local Time) from KSEM Reporting Station
Clear Clear  
Wind Chill: 36°   Ceiling: Unl
Heat Index: 43°   Visibility: 10mi
Dew Point: 32°   Wind: 14mph
Humidity: 66%   Direction: 320°NW
Pressure: 30.37"   Gusts: NA
Location:  32.34°N, 86.88°W
Report Text: KSEM 271415Z AUTO 32012KT 10SM CLR 06/M00 A3037 RMK AO2
Loading
Personal Weather Stations






























Interactive Weather Map New forecast layout! Learn more

10-Day Weather Forecast

Advertisements
Track Severe Weather on mobile